Login
Enregistrement
Password
EN

The riders list > mikowi > List of sessions

Profile | Sessions | Equipment | Photos | Statitics

List of sessionsSessions historyCalendar


2014 [9] • 2015 [2] • 2018 [14]2019 [21] • 2020 [9]

 Windsurf [8] •  Undefined [6] • All [14]


[1]
 
[14/14]

Date :  12/10/2018 [Friday]
Spot :
  Lancieux (Côtes d'Armor, France)
Type :  Windsurf (Freeride)
Start time :  14:00
End time :  15:15
Duration :  1h15mn
Wind :  10 at 30 kts South/South-West
Distance :  14.00 km
Mark :  6/10
Tabou 3S CED 106l
Tabou Freeride 32.0
Simmer Style Crossover 6.2
Gun Sails Loop 430
 

Comment
Trop irrégulier!


[13/14]

Date :  07/10/2018 [Sunday]
Spot :
  Lancieux (Côtes d'Armor, France)
Type :  Windsurf (Freeride)
Start time :  10:40
End time :  15:30
Duration :  4h
Wind :  20 at 25 kts North
Mark :  10/10
Exocet Universal Wave 2
Gun Sails Flash 5.4
Gun Sails cross 400
 

Comment
Parfait. Bump & Jump. Jolies gentilles vagues.


[12/14]

Date :  22/09/2018 [Saturday]
Spot :
  Le Palandrin (Pont-Mahé, Loire-Atlantique, France)
Type :  Windsurf (Freeride)
Start time :  17:55
End time :  19:15
Duration :  1h20mn
Wind :  20 at 25 kts South-West
Mark :  8/10
Exocet Universal Wave 2
Gun Sails Peak 4.7
Gun Sails cross 400
 

Comment
Découvert sympa du spot


[11/14]

Date :  20/09/2018 [Thursday]
Spot :
  Plage des Briantais (Lancieux, Côtes d'Armor, France)
Type :  Windsurf (Freeride)
Start time :  15:00
End time :  18:00
Duration :  2h15mn
Wind :  18 at 23 kts South/South-West
Mark :  8/10
Tabou 3S CED 106l
Tabou Freeride 32.0
Gun Sails Flash 5.4
Gun Sails cross 400
 

Comment
Super


[10/14]

Date :  29/07/2018 [Sunday]
Spot :
  Lancieux (Côtes d'Armor, France)
Type :  Windsurf
Start time :  13:10
End time :  16:40
Duration :  3h
Wind :  18 at 27 kts South/South-West
Maximum Speed :  26.00 kts
Distance :  67.00 km
Mark :  10/10
Tabou 3S CED 106l
Tabou Freeride 32.0
Gun Sails Flash 5.4
Gun Sails cross 400
 

Comment
LFRD 291500Z AUTO 20019KT 9999 BKN015 OVC021 21/18 Q1009 TEMPO 4000 RADZ OVC008 BECMG 20020G30KT
LFRD 291430Z AUTO 20019KT 9999 BKN014 OVC022 21/18 Q1009 TEMPO 4000 RADZ OVC008 BECMG 20020G30KT
LFRD 291400Z AUTO 21021G31KT 170V230 9999 BKN014 OVC020 22/18 Q1009 TEMPO 4000 RADZ OVC008
LFRD 291330Z AUTO 20019KT 9999 OVC012 21/18 Q1008 TEMPO 4000 RADZ OVC008 BECMG 20020G30KT
LFRD 291300Z AUTO 20019KT 9999 OVC010 21/18 Q1008 TEMPO 4000 RADZ BECMG 20020G30KT
LFRD 291230Z AUTO 19019KT 9999 OVC011 20/18 Q1008 TEMPO 4000 RADZ OVC008 BECMG 20020G30KT
LFRD 291200Z AUTO 20020G31KT 9999 OVC011 20/18 Q1008 TEMPO 4000 RADZ OVC008
LFRD 291130Z AUTO 19017G29KT 9999 OVC012 19/17 Q1008 TEMPO 4000 RADZ OVC008
LFRD 291100Z AUTO 19018KT 9999 BKN011 OVC068 18/17 Q1008 TEMPO 20020G30KT BECMG BKN040



[9/14]

Date :  13/05/2018 [Sunday]
Spot :
  La Vieille Nouvelle (Gruissan, Aude, France)
Type :  Undefined
Start time :  ---
End time :  ---
Duration :  0h50mn
Wind :  ---
Mark :  7/10
Tabou 3S CED 106l
Tabou Freeride 32.0
Gun Sails Peak 4.7
North Sails Sting 400
 


[8/14]

Date :  13/05/2018 [Sunday]
Spot :
  La Vieille Nouvelle (Gruissan, Aude, France)
Type :  Undefined
Start time :  ---
End time :  ---
Duration :  1h25mn
Wind :  20 at 30 kts North-West
Mark :  9/10
Tabou 3S CED 106l
Gun Sails Peak 4.7
North Sails Sting 400
 


[7/14]

Date :  13/05/2018 [Sunday]
Spot :
  La Vieille Nouvelle (Gruissan, Aude, France)
Type :  Undefined
Start time :  ---
End time :  ---
Duration :  1h20mn
Wind :  20 at 30 kts North-West
Mark :  8/10
Tabou 3S CED 106l
Tabou Freeride 32.0
Gun Sails Flash 5.4
Gun Sails cross 400
 


[6/14]

Date :  10/05/2018 [Thursday]
Spot :
  La Vieille Nouvelle (Gruissan, Aude, France)
Type :  Undefined
Start time :  ---
End time :  ---
Duration :  1h20mn
Wind :  25 at 30 kts North-West
Mark :  8/10
Exocet Universal Wave 2
Gun Sails Peak 4.7
Gun Sails cross 400
 

Comment
Première manche défi 2018


[5/14]

Date :  09/05/2018 [Wednesday]
Spot :
  La Vieille Nouvelle (Gruissan, Aude, France)
Type :  Undefined
Start time :  ---
End time :  ---
Duration :  2h40mn
Wind :  25 at 35 kts North-West
Mark :  10/10
Exocet Universal Wave 2
Gun Sails Peak 4.7
North Sails Sting 400
 


[1]
MWS - My Wind Sessions
http://windsurf-sessions.eg2.fr - Contact